Time;durP1;ratioP1;P1;durP2;ratioP2;P2;SDS_P1;SDS_P2;PMS_P1;PMS_P2;Temp;Humidity;BMP_temperature;BMP_pressure;BME280_temperature;BME280_humidity;BME280_pressure;Samples;Min_cycle;Max_cycle;Signal;HPM_P1;HPM_P2
2022/05/06 00:01:07;;;;;;;225.43;71.07;;;10.50;99.90;;;;;;5028737;28;20702;-59
2022/05/06 00:03:37;;;;;;;249.23;74.00;;;10.50;99.90;;;;;;5036649;28;20202;-58
2022/05/06 00:06:06;;;;;;;260.70;73.30;;;10.60;99.90;;;;;;5030644;28;20279;-59
2022/05/06 00:08:35;;;;;;;238.13;68.87;;;10.60;99.90;;;;;;5032981;28;20220;-59
2022/05/06 00:11:04;;;;;;;236.30;69.60;;;10.60;99.90;;;;;;5037553;28;20581;-59
2022/05/06 00:13:32;;;;;;;225.33;65.60;;;10.60;99.90;;;;;;5033932;28;20197;-59
2022/05/06 00:16:03;;;;;;;202.20;61.30;;;10.60;99.90;;;;;;5029804;28;20210;-58
2022/05/06 00:18:33;;;;;;;203.73;60.90;;;10.60;99.90;;;;;;5036150;28;20236;-59
2022/05/06 00:21:02;;;;;;;193.60;58.03;;;10.60;99.90;;;;;;5028703;28;20193;-59
2022/05/06 00:23:30;;;;;;;183.67;54.10;;;10.60;99.90;;;;;;5037301;28;20220;-59
2022/05/06 00:25:59;;;;;;;203.77;52.07;;;10.60;99.90;;;;;;5028989;28;20638;-59
2022/05/06 00:28:28;;;;;;;205.47;48.33;;;10.60;99.90;;;;;;5034595;28;20220;-58
2022/05/06 00:30:56;;;;;;;166.23;49.13;;;10.60;99.90;;;;;;5030298;28;20235;-59
2022/05/06 00:33:24;;;;;;;196.40;49.23;;;10.70;99.90;;;;;;5019455;28;20665;-59
2022/05/06 00:35:55;;;;;;;174.97;49.63;;;10.60;99.90;;;;;;5021972;28;20277;-59
2022/05/06 00:38:24;;;;;;;175.90;49.10;;;10.60;99.90;;;;;;5025243;28;20198;-59
2022/05/06 00:40:52;;;;;;;205.43;49.60;;;10.50;99.90;;;;;;5033347;28;20213;-59
2022/05/06 00:43:22;;;;;;;205.07;50.77;;;10.50;99.90;;;;;;5037796;28;20337;-59
2022/05/06 00:45:52;;;;;;;184.47;49.30;;;10.50;99.90;;;;;;5023197;28;20611;-59
2022/05/06 00:48:23;;;;;;;197.90;49.87;;;10.50;99.90;;;;;;5030764;28;20197;-59
2022/05/06 00:50:57;;;;;;;194.73;49.93;;;10.50;99.90;;;;;;5027669;28;20312;-59
2022/05/06 00:53:25;;;;;;;178.90;48.20;;;10.50;99.90;;;;;;5031428;28;20201;-59
2022/05/06 00:55:56;;;;;;;198.27;51.90;;;10.50;99.90;;;;;;5033342;28;20706;-59
2022/05/06 00:58:24;;;;;;;189.73;50.87;;;10.50;99.90;;;;;;5019266;28;20194;-59
2022/05/06 01:00:53;;;;;;;196.60;52.13;;;10.50;99.90;;;;;;5031056;28;20199;-59
2022/05/06 01:03:21;;;;;;;145.03;43.07;;;10.60;99.90;;;;;;5032289;28;20210;-59
2022/05/06 01:05:50;;;;;;;135.50;42.20;;;10.60;99.90;;;;;;5017492;28;20210;-59
2022/05/06 01:08:21;;;;;;;147.87;44.03;;;10.60;99.90;;;;;;5034032;28;20189;-59
2022/05/06 01:10:49;;;;;;;148.57;42.87;;;10.60;99.90;;;;;;5032471;28;20291;-59
2022/05/06 01:13:18;;;;;;;173.73;44.27;;;10.60;99.90;;;;;;5034279;28;20284;-58
2022/05/06 01:15:48;;;;;;;161.97;42.93;;;10.60;99.90;;;;;;5026869;28;20216;-59
2022/05/06 01:18:16;;;;;;;147.97;43.80;;;10.60;99.90;;;;;;5024978;28;20272;-59
2022/05/06 01:20:49;;;;;;;151.43;45.07;;;10.50;99.90;;;;;;5010817;28;20194;-58
2022/05/06 01:23:20;;;;;;;154.97;42.80;;;10.50;99.90;;;;;;5030818;28;20197;-59
2022/05/06 01:25:49;;;;;;;138.87;41.13;;;10.50;99.90;;;;;;5040337;28;20192;-59
2022/05/06 01:28:18;;;;;;;134.47;41.33;;;10.50;99.90;;;;;;5050005;28;20237;-59
2022/05/06 01:30:48;;;;;;;185.50;44.17;;;10.50;99.90;;;;;;5041382;28;20231;-58
2022/05/06 01:33:18;;;;;;;159.53;44.07;;;10.50;99.90;;;;;;5031398;28;20211;-59
2022/05/06 01:35:48;;;;;;;148.50;44.53;;;10.50;99.90;;;;;;5049413;28;20278;-58
2022/05/06 01:38:20;;;;;;;158.57;46.77;;;10.50;99.90;;;;;;5038695;28;20275;-59
2022/05/06 01:40:54;;;;;;;164.50;46.53;;;10.50;99.90;;;;;;5033616;28;20190;-59
2022/05/06 01:43:25;;;;;;;143.03;44.23;;;10.50;99.90;;;;;;5005187;28;20207;-59
2022/05/06 01:45:55;;;;;;;150.37;41.73;;;10.50;99.90;;;;;;5035540;28;20185;-59
2022/05/06 01:48:25;;;;;;;153.60;43.50;;;10.50;99.90;;;;;;5033261;28;20197;-59
2022/05/06 01:50:54;;;;;;;143.80;41.70;;;10.50;99.90;;;;;;5034334;28;20216;-59
2022/05/06 01:53:24;;;;;;;133.60;40.17;;;10.50;99.90;;;;;;5013724;28;20211;-59
2022/05/06 01:55:52;;;;;;;129.40;39.73;;;10.50;99.90;;;;;;5050564;28;20854;-58
2022/05/06 01:58:21;;;;;;;175.77;43.80;;;10.50;99.90;;;;;;5056328;28;20235;-59
2022/05/06 02:00:50;;;;;;;168.53;44.00;;;10.50;99.90;;;;;;5012582;28;20192;-59
2022/05/06 02:06:04;;;;;;;212.70;49.93;;;10.40;99.90;;;;;;5031315;28;20753;-59
2022/05/06 02:08:34;;;;;;;203.10;50.23;;;10.40;99.90;;;;;;5049550;28;20727;-59
2022/05/06 02:11:03;;;;;;;201.93;49.83;;;10.50;99.90;;;;;;5038476;28;20737;-58
2022/05/06 02:13:32;;;;;;;226.20;52.80;;;10.50;99.90;;;;;;5047096;28;20216;-59
2022/05/06 02:16:01;;;;;;;221.90;50.00;;;10.50;99.90;;;;;;5036692;28;20198;-59
2022/05/06 02:18:29;;;;;;;231.43;54.13;;;10.50;99.90;;;;;;5000639;28;20237;-59
2022/05/06 02:20:59;;;;;;;232.97;53.87;;;10.60;99.90;;;;;;5043183;28;20212;-59
2022/05/06 02:23:28;;;;;;;217.53;51.67;;;10.60;99.90;;;;;;5026912;28;20209;-59
2022/05/06 02:25:58;;;;;;;237.90;53.93;;;10.60;99.90;;;;;;5029966;28;20224;-60
2022/05/06 02:28:26;;;;;;;234.60;53.90;;;10.60;99.90;;;;;;5029511;28;20667;-59
2022/05/06 02:33:43;;;;;;;247.57;53.57;;;10.60;99.90;;;;;;5026063;28;20201;-58
2022/05/06 02:36:11;;;;;;;215.23;49.80;;;10.60;99.90;;;;;;5041837;28;20197;-60
2022/05/06 02:38:40;;;;;;;236.50;52.70;;;10.60;99.90;;;;;;5030348;28;20193;-59
2022/05/06 02:41:10;;;;;;;211.10;50.10;;;10.60;99.90;;;;;;5031131;28;20190;-59
2022/05/06 02:43:38;;;;;;;216.93;48.53;;;10.50;99.90;;;;;;5017991;28;20200;-59
2022/05/06 02:46:07;;;;;;;208.07;49.10;;;10.50;99.90;;;;;;5040074;28;20284;-59
2022/05/06 02:48:35;;;;;;;248.13;51.30;;;10.50;99.90;;;;;;5031978;28;20197;-59
2022/05/06 02:51:04;;;;;;;252.60;49.13;;;10.50;99.90;;;;;;5038753;28;20211;-59
2022/05/06 02:53:32;;;;;;;216.00;48.70;;;10.50;99.90;;;;;;5036257;28;20288;-59
2022/05/06 02:56:01;;;;;;;218.17;47.83;;;10.50;99.90;;;;;;5033562;28;20197;-59
2022/05/06 02:58:31;;;;;;;213.30;47.93;;;10.50;99.90;;;;;;5036343;28;20193;-59
2022/05/06 03:00:59;;;;;;;196.37;46.63;;;10.50;99.90;;;;;;5045884;28;20193;-59
2022/05/06 03:03:28;;;;;;;228.40;48.67;;;10.50;99.90;;;;;;5029484;28;20209;-60
2022/05/06 03:05:56;;;;;;;225.53;48.53;;;10.50;99.90;;;;;;5044672;28;20292;-59
2022/05/06 03:08:25;;;;;;;231.60;49.50;;;10.50;99.90;;;;;;5045638;28;20193;-60
2022/05/06 03:10:53;;;;;;;226.13;50.10;;;10.50;99.90;;;;;;5044289;28;20730;-59
2022/05/06 03:13:22;;;;;;;244.63;50.73;;;10.50;99.90;;;;;;5030810;28;20197;-59
2022/05/06 03:15:52;;;;;;;233.87;50.77;;;10.50;99.90;;;;;;5032684;28;20218;-59
2022/05/06 03:18:20;;;;;;;221.10;47.43;;;10.60;99.90;;;;;;5036377;28;20241;-60
2022/05/06 03:20:49;;;;;;;234.83;50.23;;;10.60;99.90;;;;;;5035899;28;20181;-59
2022/05/06 03:23:17;;;;;;;220.87;50.67;;;10.60;99.90;;;;;;5035307;28;20210;-59
2022/05/06 03:25:46;;;;;;;197.20;47.07;;;10.60;99.90;;;;;;5031167;28;20198;-59
2022/05/06 03:28:15;;;;;;;233.33;49.93;;;10.60;99.90;;;;;;5033876;28;20296;-59
2022/05/06 03:30:45;;;;;;;212.10;48.17;;;10.60;99.90;;;;;;5032070;28;20291;-59
2022/05/06 03:33:17;;;;;;;233.13;50.17;;;10.60;99.90;;;;;;5040671;28;20542;-59
2022/05/06 03:35:45;;;;;;;222.60;51.67;;;10.60;99.90;;;;;;5041135;28;20197;-59
2022/05/06 03:38:14;;;;;;;239.80;52.20;;;10.60;99.90;;;;;;5025627;28;20273;-59
2022/05/06 03:40:43;;;;;;;230.13;48.57;;;10.60;99.90;;;;;;5018565;28;20208;-59
2022/05/06 03:43:11;;;;;;;297.67;51.13;;;10.60;99.90;;;;;;5030913;28;20205;-59
2022/05/06 03:45:39;;;;;;;246.20;52.47;;;10.60;99.90;;;;;;5021515;28;20206;-59
2022/05/06 03:48:08;;;;;;;217.97;49.13;;;10.60;99.90;;;;;;5024403;28;20214;-59
2022/05/06 03:53:27;;;;;;;264.27;51.77;;;10.60;99.90;;;;;;5035342;28;20232;-59
2022/05/06 03:55:56;;;;;;;242.13;51.23;;;10.50;99.90;;;;;;5034415;28;20200;-59
2022/05/06 03:58:24;;;;;;;236.83;51.37;;;10.50;99.90;;;;;;5032857;28;20209;-59
2022/05/06 04:00:53;;;;;;;240.20;50.90;;;10.50;99.90;;;;;;5025877;28;20808;-59
2022/05/06 04:03:21;;;;;;;270.47;49.93;;;10.50;99.90;;;;;;5033388;28;20695;-59
2022/05/06 04:05:52;;;;;;;249.47;51.90;;;10.50;99.90;;;;;;5016774;28;20182;-59
2022/05/06 04:08:21;;;;;;;238.13;50.47;;;10.50;99.90;;;;;;5009352;28;20189;-59
2022/05/06 04:10:51;;;;;;;231.50;49.33;;;10.50;99.90;;;;;;5019060;28;20674;-60
2022/05/06 04:13:20;;;;;;;242.00;51.30;;;10.60;99.90;;;;;;5032754;28;20570;-59
2022/05/06 04:15:50;;;;;;;235.87;50.77;;;10.50;99.90;;;;;;5026678;28;20198;-59
2022/05/06 04:18:19;;;;;;;213.83;46.20;;;10.50;99.90;;;;;;5023794;28;20244;-59
2022/05/06 04:23:37;;;;;;;169.97;41.47;;;10.40;99.90;;;;;;5022049;28;20198;-59
2022/05/06 04:26:07;;;;;;;198.93;43.77;;;10.40;99.90;;;;;;5033218;28;20193;-59
2022/05/06 04:28:37;;;;;;;196.70;45.77;;;10.40;99.90;;;;;;5009655;28;20201;-59
2022/05/06 04:31:06;;;;;;;179.50;44.23;;;10.40;99.90;;;;;;5031154;28;20249;-59
2022/05/06 04:33:35;;;;;;;210.93;47.17;;;10.40;99.90;;;;;;5018140;28;20203;-59
2022/05/06 04:36:05;;;;;;;189.30;44.83;;;10.40;99.90;;;;;;5021987;28;20222;-59
2022/05/06 04:38:35;;;;;;;185.60;45.77;;;10.40;99.90;;;;;;5024876;28;20193;-59
2022/05/06 04:41:03;;;;;;;184.37;43.90;;;10.40;99.90;;;;;;5032016;28;20324;-59
2022/05/06 04:43:33;;;;;;;186.70;45.43;;;10.40;99.90;;;;;;5035199;28;20194;-59
2022/05/06 04:46:01;;;;;;;211.67;47.37;;;10.50;99.90;;;;;;5031454;28;20193;-59
2022/05/06 04:48:31;;;;;;;192.63;46.03;;;10.40;99.90;;;;;;5036356;28;20208;-59
2022/05/06 04:50:59;;;;;;;214.10;46.63;;;10.50;99.90;;;;;;5024916;28;22061;-59
2022/05/06 04:53:28;;;;;;;194.23;46.43;;;10.50;99.90;;;;;;5034980;28;20221;-59
2022/05/06 04:55:58;;;;;;;197.73;46.57;;;10.50;99.90;;;;;;5021050;28;20236;-59
2022/05/06 04:58:28;;;;;;;220.10;49.13;;;10.50;99.90;;;;;;5031669;28;20193;-59
2022/05/06 05:01:00;;;;;;;196.97;45.17;;;10.50;99.90;;;;;;5034769;28;20227;-59
2022/05/06 05:03:29;;;;;;;193.47;45.27;;;10.50;99.90;;;;;;5037728;28;20266;-59
2022/05/06 05:05:58;;;;;;;199.63;46.33;;;10.50;99.90;;;;;;5019286;28;20198;-59
2022/05/06 05:08:26;;;;;;;194.87;46.93;;;10.50;99.90;;;;;;5031310;28;20216;-59
2022/05/06 05:11:02;;;;;;;202.60;47.50;;;10.50;99.90;;;;;;5030728;28;20193;-59
2022/05/06 05:13:38;;;;;;;219.60;48.30;;;10.50;99.90;;;;;;5027225;28;20240;-59
2022/05/06 05:16:07;;;;;;;210.33;45.50;;;10.60;99.90;;;;;;5048549;28;20215;-60
2022/05/06 05:18:35;;;;;;;203.30;47.70;;;10.60;99.90;;;;;;5016896;28;20602;-59
2022/05/06 05:21:06;;;;;;;204.57;47.97;;;10.60;99.90;;;;;;5032500;28;20220;-60
2022/05/06 05:23:34;;;;;;;188.57;46.13;;;10.70;99.90;;;;;;5023079;28;20193;-59
2022/05/06 05:26:02;;;;;;;201.17;48.97;;;10.70;99.90;;;;;;5034998;28;20201;-59
2022/05/06 05:28:30;;;;;;;190.60;46.43;;;10.70;99.90;;;;;;5024132;28;20189;-59
2022/05/06 05:31:00;;;;;;;183.37;45.00;;;10.70;99.90;;;;;;5010901;28;20702;-59
2022/05/06 05:33:29;;;;;;;189.20;45.33;;;10.70;99.90;;;;;;5026161;28;20232;-59
2022/05/06 05:35:57;;;;;;;203.20;45.83;;;10.70;99.90;;;;;;5046271;28;20205;-60
2022/05/06 05:38:26;;;;;;;176.73;46.47;;;10.70;99.90;;;;;;5036149;28;20204;-59
2022/05/06 05:40:54;;;;;;;189.33;46.70;;;10.80;99.90;;;;;;5025313;28;20275;-59
2022/05/06 05:48:55;;;;;;;183.90;46.30;;;10.90;99.90;;;;;;5030407;28;20217;-59
2022/05/06 05:51:24;;;;;;;177.07;44.00;;;10.90;99.90;;;;;;5026130;28;20280;-59
2022/05/06 05:53:52;;;;;;;185.33;44.57;;;10.90;99.90;;;;;;5021035;28;20217;-59
2022/05/06 05:56:20;;;;;;;180.33;43.63;;;10.80;99.90;;;;;;5010850;28;20201;-60
2022/05/06 05:58:51;;;;;;;165.63;41.00;;;10.80;99.90;;;;;;5031835;28;20279;-59
2022/05/06 06:01:21;;;;;;;182.70;45.97;;;10.80;99.90;;;;;;5036206;28;20208;-59
2022/05/06 06:03:49;;;;;;;176.33;44.83;;;10.80;99.90;;;;;;5032731;28;20201;-59
2022/05/06 06:06:18;;;;;;;176.43;44.10;;;10.90;99.90;;;;;;5031215;28;20281;-59
2022/05/06 06:08:46;;;;;;;171.27;44.13;;;10.90;99.90;;;;;;5034254;28;20210;-59
2022/05/06 06:11:15;;;;;;;165.53;42.10;;;10.80;99.90;;;;;;5031324;28;20209;-60
2022/05/06 06:13:43;;;;;;;171.90;41.97;;;10.90;99.90;;;;;;5014331;28;20205;-59
2022/05/06 06:16:12;;;;;;;161.47;42.73;;;10.90;99.90;;;;;;5037338;28;20252;-60
2022/05/06 06:18:42;;;;;;;154.57;40.23;;;10.90;99.90;;;;;;5013179;28;20234;-59
2022/05/06 06:21:14;;;;;;;162.60;41.83;;;10.90;99.90;;;;;;5047000;28;20196;-59
2022/05/06 06:23:42;;;;;;;162.60;42.47;;;11.00;99.90;;;;;;5021583;28;20263;-60
2022/05/06 06:26:10;;;;;;;149.90;39.77;;;11.00;99.90;;;;;;5037179;28;20641;-60
2022/05/06 06:28:38;;;;;;;133.93;38.60;;;11.00;99.90;;;;;;5040796;28;20247;-59
2022/05/06 06:31:07;;;;;;;152.43;40.27;;;10.90;99.90;;;;;;5033120;28;20312;-60
2022/05/06 06:33:38;;;;;;;144.60;38.90;;;10.90;99.90;;;;;;5028297;28;20218;-60
2022/05/06 06:36:08;;;;;;;125.50;36.60;;;10.90;99.90;;;;;;5021541;28;20661;-60
2022/05/06 06:38:37;;;;;;;129.13;38.33;;;10.90;99.90;;;;;;5011980;28;20228;-59
2022/05/06 06:41:05;;;;;;;127.17;38.00;;;10.90;99.90;;;;;;5017469;28;20194;-59
2022/05/06 06:43:33;;;;;;;138.33;36.43;;;11.00;99.90;;;;;;5050224;28;20205;-59
2022/05/06 06:46:05;;;;;;;114.53;34.17;;;10.90;99.90;;;;;;5039290;28;20205;-59
2022/05/06 06:48:34;;;;;;;120.27;34.67;;;10.90;99.90;;;;;;5041719;28;20280;-59
2022/05/06 06:51:02;;;;;;;124.63;34.43;;;10.90;99.90;;;;;;5028459;28;20198;-59
2022/05/06 06:53:32;;;;;;;123.20;35.90;;;11.00;99.90;;;;;;5034111;28;20236;-59
2022/05/06 06:56:00;;;;;;;108.73;32.37;;;11.00;99.90;;;;;;5030982;28;20212;-59
2022/05/06 06:58:30;;;;;;;114.57;34.37;;;11.00;99.90;;;;;;5029772;28;20232;-59
2022/05/06 07:00:58;;;;;;;108.20;33.60;;;11.00;99.90;;;;;;5029840;28;20227;-59
2022/05/06 07:03:27;;;;;;;103.40;32.93;;;11.10;99.90;;;;;;5031909;28;20225;-59
2022/05/06 07:14:15;;;;;;;111.10;35.50;;;11.50;99.90;;;;;;5023796;28;20272;-59
2022/05/06 07:16:43;;;;;;;116.70;36.60;;;11.60;99.90;;;;;;5035225;28;20281;-59
2022/05/06 07:19:11;;;;;;;107.50;34.57;;;11.70;99.90;;;;;;4996237;28;20320;-60
2022/05/06 07:21:40;;;;;;;103.83;34.63;;;11.70;99.90;;;;;;5014499;28;20672;-59
2022/05/06 07:24:10;;;;;;;101.27;34.70;;;11.80;99.90;;;;;;5011264;28;20639;-59
2022/05/06 07:26:38;;;;;;;83.63;30.27;;;11.80;99.90;;;;;;5004240;28;20202;-59
2022/05/06 07:29:07;;;;;;;75.03;28.53;;;11.80;99.90;;;;;;5015716;28;20197;-59
2022/05/06 07:31:35;;;;;;;69.17;26.63;;;11.90;99.90;;;;;;5013210;28;20209;-58
2022/05/06 07:34:05;;;;;;;65.57;26.57;;;12.00;99.90;;;;;;5010117;28;20214;-60
2022/05/06 07:36:34;;;;;;;64.57;24.67;;;12.00;99.90;;;;;;5008984;28;20196;-59
2022/05/06 07:39:02;;;;;;;70.37;26.57;;;12.10;99.90;;;;;;5011696;28;20965;-60
2022/05/06 07:41:32;;;;;;;59.57;25.53;;;12.10;99.90;;;;;;5007571;28;20198;-59
2022/05/06 07:44:00;;;;;;;61.83;24.27;;;12.30;99.90;;;;;;5008995;28;20832;-60
2022/05/06 07:46:29;;;;;;;54.67;23.73;;;12.60;99.90;;;;;;5015272;28;20572;-59
2022/05/06 07:48:57;;;;;;;57.67;24.97;;;12.80;99.90;;;;;;5012534;28;20675;-60
2022/05/06 07:51:26;;;;;;;56.03;23.97;;;13.00;99.90;;;;;;5013242;28;20212;-59
2022/05/06 07:53:55;;;;;;;49.70;23.77;;;13.30;99.90;;;;;;5023172;28;20563;-60
2022/05/06 07:56:24;;;;;;;52.30;23.10;;;13.60;99.90;;;;;;5021791;28;20768;-59
2022/05/06 07:58:54;;;;;;;48.00;22.60;;;13.90;99.90;;;;;;5016052;28;20236;-60
2022/05/06 08:04:32;;;;;;;45.33;21.20;;;14.30;99.90;;;;;;5011198;28;20199;-60
2022/05/06 08:06:59;;;;;;;54.37;22.93;;;15.20;99.90;;;;;;5010669;28;20270;-59
2022/05/06 08:09:27;;;;;;;40.73;19.50;;;15.80;99.90;;;;;;5011655;28;20206;-60
2022/05/06 08:11:55;;;;;;;39.40;19.83;;;16.40;99.90;;;;;;5010416;28;20207;-60
2022/05/06 08:14:25;;;;;;;37.33;18.90;;;16.60;99.90;;;;;;5021388;28;20693;-60
2022/05/06 08:16:55;;;;;;;39.03;20.67;;;17.00;99.90;;;;;;5003130;28;20291;-60
2022/05/06 08:19:23;;;;;;;40.33;20.20;;;17.10;99.90;;;;;;5035799;28;20315;-60
2022/05/06 08:21:52;;;;;;;35.60;19.57;;;17.50;99.90;;;;;;5045075;28;20195;-60
2022/05/06 08:24:21;;;;;;;37.23;19.77;;;17.30;99.90;;;;;;5037616;28;20285;-61
2022/05/06 08:26:49;;;;;;;33.80;18.60;;;17.40;99.90;;;;;;5048748;28;20244;-60
2022/05/06 08:29:18;;;;;;;36.97;19.40;;;17.70;99.90;;;;;;5027359;28;20193;-60
2022/05/06 08:31:48;;;;;;;37.37;19.03;;;17.70;99.90;;;;;;5029686;28;20222;-60
2022/05/06 08:34:17;;;;;;;37.53;20.20;;;17.60;99.90;;;;;;5028306;28;20310;-60
2022/05/06 08:36:46;;;;;;;37.37;19.80;;;18.20;99.90;;;;;;5015977;28;20227;-58
2022/05/06 08:39:15;;;;;;;38.97;20.17;;;18.20;99.90;;;;;;5026530;28;20196;-58
2022/05/06 08:41:43;;;;;;;39.97;21.20;;;18.70;99.90;;;;;;5031104;28;20193;-58
2022/05/06 08:52:34;;;;;;;30.17;17.07;;;20.00;99.90;;;;;;5023661;28;20596;-59
2022/05/06 08:55:04;;;;;;;28.60;17.10;;;20.50;99.90;;;;;;5035845;28;20213;-58
2022/05/06 08:57:33;;;;;;;34.85;18.83;;;20.20;99.90;;;;;;5041744;28;20195;-58
2022/05/06 09:00:02;;;;;;;30.70;18.10;;;20.40;99.90;;;;;;5036060;28;20211;-58
2022/05/06 09:02:32;;;;;;;28.40;17.33;;;20.90;99.90;;;;;;5031352;28;20253;-58
2022/05/06 09:05:01;;;;;;;34.75;19.33;;;21.20;99.90;;;;;;5021762;28;20199;-58
2022/05/06 09:07:29;;;;;;;27.98;16.58;;;21.40;99.90;;;;;;5034379;28;20252;-58
2022/05/06 09:10:13;;;;;;;30.00;17.88;;;21.80;99.90;;;;;;5049237;28;20202;-60
2022/05/06 09:12:44;;;;;;;26.05;15.82;;;22.10;99.90;;;;;;5017445;28;20212;-61
2022/05/06 09:18:03;;;;;;;29.33;17.38;;;22.00;99.90;;;;;;5036010;28;20309;-58
2022/05/06 09:20:32;;;;;;;22.25;13.55;;;22.60;99.90;;;;;;5008610;28;20202;-58
2022/05/06 09:23:18;;;;;;;26.05;15.75;;;22.70;99.90;;;;;;5033693;28;20283;-59
2022/05/06 09:25:49;;;;;;;23.90;15.07;;;22.90;99.90;;;;;;5022027;28;20267;-58
2022/05/06 09:28:23;;;;;;;23.90;14.70;;;23.00;99.90;;;;;;5020261;28;20201;-59
2022/05/06 09:31:01;;;;;;;27.73;14.80;;;22.90;99.90;;;;;;5026211;28;20696;-59
2022/05/06 09:33:33;;;;;;;25.00;14.73;;;23.50;99.90;;;;;;5034384;28;20189;-59
2022/05/06 09:36:22;;;;;;;20.70;13.27;;;23.70;99.90;;;;;;5045381;28;20249;-59
2022/05/06 09:39:04;;;;;;;20.77;10.55;;;24.50;99.90;;;;;;5038717;28;20268;-59
2022/05/06 09:41:33;;;;;;;17.85;9.82;;;24.80;99.90;;;;;;5038014;28;20206;-59
2022/05/06 09:44:03;;;;;;;16.95;10.13;;;25.20;99.90;;;;;;5038192;28;20876;-59
2022/05/06 09:46:31;;;;;;;11.50;8.63;;;25.10;99.90;;;;;;5045410;28;21033;-59
2022/05/06 09:49:03;;;;;;;14.57;9.18;;;25.20;99.90;;;;;;5043473;28;20571;-59
2022/05/06 09:51:52;;;;;;;17.23;9.90;;;25.40;99.90;;;;;;5034630;28;20199;-59
2022/05/06 09:54:32;;;;;;;19.08;12.05;;;25.70;99.90;;;;;;5035944;28;20287;-59
2022/05/06 09:57:04;;;;;;;15.98;10.13;;;25.70;99.90;;;;;;5016359;28;20198;-59
2022/05/06 09:59:32;;;;;;;12.68;9.20;;;25.50;99.90;;;;;;5038798;28;20217;-58
2022/05/06 10:02:01;;;;;;;15.15;8.07;;;25.50;99.90;;;;;;5030674;28;22047;-59
2022/05/06 10:04:38;;;;;;;12.43;8.23;;;25.70;99.90;;;;;;5034850;28;20271;-59
2022/05/06 10:07:08;;;;;;;12.90;8.25;;;26.00;99.90;;;;;;5016669;28;20604;-60
2022/05/06 10:09:45;;;;;;;10.20;7.68;;;26.10;99.90;;;;;;4999509;28;20216;-58
2022/05/06 10:12:16;;;;;;;10.45;7.95;;;26.20;99.90;;;;;;5043462;28;20250;-59
2022/05/06 10:14:45;;;;;;;11.15;8.75;;;26.00;99.90;;;;;;5027908;28;20223;-59
2022/05/06 10:17:33;;;;;;;13.20;7.68;;;25.50;99.90;;;;;;5029243;28;20322;-58
2022/05/06 10:20:04;;;;;;;13.02;8.80;;;26.10;99.90;;;;;;5030079;28;20670;-59
2022/05/06 10:22:59;;;;;;;11.88;7.80;;;26.20;99.90;;;;;;5028519;28;20264;-58
2022/05/06 10:25:48;;;;;;;11.18;7.63;;;25.90;99.90;;;;;;5025274;28;20524;-58
2022/05/06 10:34:32;;;;;;;17.05;9.05;;;26.90;99.90;;;;;;5033916;28;20302;-58
2022/05/06 10:37:04;;;;;;;11.02;8.10;;;26.90;99.90;;;;;;5032694;28;20275;-58
2022/05/06 10:39:37;;;;;;;11.35;7.97;;;26.70;99.90;;;;;;5023187;28;20193;-58
2022/05/06 10:42:07;;;;;;;10.10;7.55;;;26.30;99.90;;;;;;5010349;28;20215;-58
2022/05/06 10:44:39;;;;;;;9.73;7.38;;;26.00;99.90;;;;;;5024028;28;20202;-58
2022/05/06 10:47:41;;;;;;;8.85;7.53;;;26.10;99.90;;;;;;5034069;28;20288;-58
2022/05/06 10:50:21;;;;;;;9.35;7.22;;;26.00;99.90;;;;;;5011823;28;20622;-58
2022/05/06 10:53:01;;;;;;;9.05;7.00;;;25.70;99.90;;;;;;5032172;28;20231;-58
2022/05/06 10:55:30;;;;;;;13.65;8.10;;;25.60;99.90;;;;;;5016128;28;20221;-59
2022/05/06 10:58:00;;;;;;;11.13;7.97;;;25.10;99.90;;;;;;5031068;28;20761;-58
2022/05/06 11:00:30;;;;;;;12.02;7.63;;;25.00;99.90;;;;;;5014416;28;20207;-57
2022/05/06 11:03:01;;;;;;;11.38;7.63;;;24.80;99.90;;;;;;5047427;28;20198;-58
2022/05/06 11:05:31;;;;;;;9.15;6.70;;;24.70;99.90;;;;;;5031115;28;20288;-58
2022/05/06 11:08:05;;;;;;;11.23;6.95;;;24.90;99.90;;;;;;5031750;28;20203;-58
2022/05/06 11:10:34;;;;;;;8.20;7.03;;;25.10;99.90;;;;;;5027414;28;20560;-61
2022/05/06 11:13:25;;;;;;;10.85;7.32;;;24.80;99.90;;;;;;5028735;28;20207;-60
2022/05/06 11:15:55;;;;;;;11.80;7.00;;;24.90;99.90;;;;;;5042866;28;20208;-61
2022/05/06 11:18:25;;;;;;;10.23;7.18;;;25.00;99.90;;;;;;5026040;28;20230;-60
2022/05/06 11:20:53;;;;;;;10.23;7.03;;;25.20;99.90;;;;;;5026623;28;20205;-60
2022/05/06 11:23:32;;;;;;;9.60;7.05;;;25.50;99.90;;;;;;5028172;28;20290;-60
2022/05/06 11:26:00;;;;;;;9.00;6.70;;;25.60;99.90;;;;;;5015307;28;20191;-60
2022/05/06 11:28:32;;;;;;;10.63;7.07;;;25.20;99.90;;;;;;5027773;28;20199;-60
2022/05/06 11:31:01;;;;;;;10.68;6.95;;;25.20;99.90;;;;;;5025026;28;20735;-60
2022/05/06 11:33:31;;;;;;;10.88;6.45;;;25.00;99.90;;;;;;5017758;28;20647;-60
2022/05/06 11:36:02;;;;;;;8.15;6.07;;;25.00;99.90;;;;;;5029170;28;20207;-60
2022/05/06 11:38:35;;;;;;;7.50;6.50;;;24.70;99.90;;;;;;5026318;28;20207;-60
2022/05/06 11:41:08;;;;;;;9.32;6.70;;;24.60;99.90;;;;;;5031828;28;20195;-60
2022/05/06 11:43:36;;;;;;;8.57;6.78;;;24.60;99.90;;;;;;5026542;28;20284;-57
2022/05/06 11:48:51;;;;;;;9.30;7.67;;;24.80;99.90;;;;;;5030059;28;20662;-58
2022/05/06 11:51:24;;;;;;;9.43;7.37;;;24.70;99.90;;;;;;5032112;28;20193;-61
2022/05/06 11:53:55;;;;;;;7.20;6.50;;;24.80;99.90;;;;;;5045294;28;20186;-60
2022/05/06 11:56:28;;;;;;;8.60;6.10;;;25.00;99.90;;;;;;5021107;28;20233;-60
2022/05/06 11:58:58;;;;;;;7.57;5.97;;;25.30;99.90;;;;;;5031865;28;20185;-57
2022/05/06 12:01:31;;;;;;;8.93;6.10;;;25.50;99.90;;;;;;5023470;28;20228;-58
2022/05/06 12:04:02;;;;;;;7.37;5.90;;;25.50;99.90;;;;;;5041645;28;20236;-57
2022/05/06 12:06:37;;;;;;;9.17;6.33;;;25.50;99.90;;;;;;5034569;28;20224;-60
2022/05/06 12:09:12;;;;;;;7.77;6.77;;;25.20;99.90;;;;;;5032309;28;20292;-60
2022/05/06 12:11:42;;;;;;;6.97;6.27;;;24.80;99.90;;;;;;5040456;28;20287;-59
2022/05/06 12:14:13;;;;;;;9.17;7.23;;;24.60;99.90;;;;;;5022921;28;20243;-60
2022/05/06 12:16:54;;;;;;;9.73;7.20;;;24.60;99.90;;;;;;5041612;28;20685;-60
2022/05/06 12:19:36;;;;;;;7.67;6.63;;;24.40;99.90;;;;;;5041427;28;20243;-60
2022/05/06 12:22:07;;;;;;;8.50;7.23;;;24.40;99.90;;;;;;5014930;28;20696;-60
2022/05/06 12:24:45;;;;;;;8.50;7.37;;;24.30;99.90;;;;;;5047109;28;20226;-60
2022/05/06 12:27:23;;;;;;;8.60;7.27;;;24.20;99.90;;;;;;5021009;28;20207;-60
2022/05/06 12:29:53;;;;;;;8.67;7.40;;;24.20;99.90;;;;;;5029909;28;20548;-59
2022/05/06 12:32:21;;;;;;;11.90;7.97;;;23.90;99.90;;;;;;5038235;28;20220;-59
2022/05/06 12:35:03;;;;;;;9.60;7.63;;;23.80;99.90;;;;;;5045604;28;20202;-59
2022/05/06 12:37:33;;;;;;;10.63;7.07;;;23.80;99.90;;;;;;5037728;28;20219;-59
2022/05/06 12:40:08;;;;;;;12.63;7.20;;;23.50;99.90;;;;;;5013466;28;20202;-59
2022/05/06 12:42:36;;;;;;;9.73;7.43;;;23.20;99.90;;;;;;5024709;28;20289;-59
2022/05/06 12:45:25;;;;;;;9.60;7.53;;;22.70;99.90;;;;;;5032634;28;20206;-60
2022/05/06 12:50:39;;;;;;;10.40;7.73;;;22.90;99.90;;;;;;5044068;28;20220;-60
2022/05/06 12:53:07;;;;;;;10.60;6.87;;;23.20;99.90;;;;;;5031000;28;20194;-59
2022/05/06 12:55:37;;;;;;;6.80;5.97;;;23.50;99.90;;;;;;5016754;28;20197;-60
2022/05/06 12:58:06;;;;;;;6.67;6.07;;;23.80;99.90;;;;;;5011950;28;20259;-59
2022/05/06 13:00:37;;;;;;;7.57;6.70;;;24.10;99.90;;;;;;5034618;28;20190;-60
2022/05/06 13:03:05;;;;;;;7.00;6.30;;;24.10;99.90;;;;;;5047161;28;20213;-61
2022/05/06 13:05:35;;;;;;;9.87;5.97;;;24.20;99.90;;;;;;5029732;28;20210;-60
2022/05/06 13:08:06;;;;;;;7.40;6.07;;;24.20;99.90;;;;;;5030021;28;20324;-60
2022/05/06 13:10:37;;;;;;;7.90;5.73;;;23.90;99.90;;;;;;5036012;28;20242;-60
2022/05/06 13:13:06;;;;;;;8.77;5.83;;;23.60;99.90;;;;;;5042456;28;20281;-60
2022/05/06 13:15:35;;;;;;;6.17;5.57;;;23.30;99.90;;;;;;5050527;28;20208;-59
2022/05/06 13:18:04;;;;;;;8.83;6.43;;;23.40;99.90;;;;;;5037117;28;20230;-60
2022/05/06 13:20:33;;;;;;;8.53;6.00;;;23.80;99.90;;;;;;5033713;28;20209;-60
2022/05/06 13:23:02;;;;;;;6.70;5.77;;;24.00;99.90;;;;;;5016857;28;20282;-59
2022/05/06 13:25:30;;;;;;;6.43;5.73;;;24.20;99.90;;;;;;5045928;28;20589;-60
2022/05/06 13:28:00;;;;;;;8.47;6.20;;;24.40;99.90;;;;;;5025561;28;20641;-59
2022/05/06 13:30:28;;;;;;;7.30;6.60;;;24.50;99.90;;;;;;5040671;28;20596;-60
2022/05/06 13:32:57;;;;;;;7.27;6.43;;;24.20;99.90;;;;;;5031306;28;20202;-59